sensor_id;sensor_type;location;lat;lon;timestamp;P1;durP1;ratioP1;P2;durP2;ratioP2
60973;SDS011;46846;51.528;5.076;2023-09-08T00:02:05;517.50;;;492.45;;
60973;SDS011;46846;51.528;5.076;2023-09-08T00:04:30;523.35;;;498.00;;
60973;SDS011;46846;51.528;5.076;2023-09-08T00:06:57;549.88;;;523.40;;
60973;SDS011;46846;51.528;5.076;2023-09-08T00:09:23;522.72;;;496.98;;
60973;SDS011;46846;51.528;5.076;2023-09-08T00:11:48;524.95;;;499.58;;
60973;SDS011;46846;51.528;5.076;2023-09-08T00:14:14;514.25;;;489.35;;
60973;SDS011;46846;51.528;5.076;2023-09-08T00:16:39;516.75;;;491.88;;
60973;SDS011;46846;51.528;5.076;2023-09-08T00:19:08;525.22;;;499.50;;
60973;SDS011;46846;51.528;5.076;2023-09-08T00:21:33;525.88;;;500.38;;
60973;SDS011;46846;51.528;5.076;2023-09-08T00:23:59;509.33;;;484.88;;
60973;SDS011;46846;51.528;5.076;2023-09-08T00:26:26;514.83;;;489.95;;
60973;SDS011;46846;51.528;5.076;2023-09-08T00:28:51;498.23;;;474.17;;
60973;SDS011;46846;51.528;5.076;2023-09-08T00:31:17;503.05;;;478.70;;
60973;SDS011;46846;51.528;5.076;2023-09-08T00:33:42;501.70;;;477.38;;
60973;SDS011;46846;51.528;5.076;2023-09-08T00:36:09;515.67;;;490.75;;
60973;SDS011;46846;51.528;5.076;2023-09-08T00:38:34;518.63;;;493.35;;
60973;SDS011;46846;51.528;5.076;2023-09-08T00:41:00;507.58;;;483.13;;
60973;SDS011;46846;51.528;5.076;2023-09-08T00:43:25;522.65;;;497.35;;
60973;SDS011;46846;51.528;5.076;2023-09-08T00:45:51;508.83;;;484.25;;
60973;SDS011;46846;51.528;5.076;2023-09-08T00:48:19;520.20;;;494.88;;
60973;SDS011;46846;51.528;5.076;2023-09-08T00:50:45;517.72;;;492.67;;
60973;SDS011;46846;51.528;5.076;2023-09-08T00:53:10;518.28;;;493.17;;
60973;SDS011;46846;51.528;5.076;2023-09-08T00:55:36;503.95;;;479.58;;
60973;SDS011;46846;51.528;5.076;2023-09-08T00:58:03;519.03;;;493.85;;
60973;SDS011;46846;51.528;5.076;2023-09-08T01:00:28;509.95;;;485.05;;
60973;SDS011;46846;51.528;5.076;2023-09-08T01:02:54;512.00;;;487.27;;
60973;SDS011;46846;51.528;5.076;2023-09-08T01:05:20;517.33;;;492.05;;
60973;SDS011;46846;51.528;5.076;2023-09-08T01:07:46;505.55;;;481.17;;
60973;SDS011;46846;51.528;5.076;2023-09-08T01:10:13;506.25;;;481.30;;
60973;SDS011;46846;51.528;5.076;2023-09-08T01:12:39;504.17;;;479.60;;
60973;SDS011;46846;51.528;5.076;2023-09-08T01:15:05;497.30;;;473.25;;
60973;SDS011;46846;51.528;5.076;2023-09-08T01:17:31;505.05;;;480.60;;
60973;SDS011;46846;51.528;5.076;2023-09-08T01:19:56;494.83;;;470.88;;
60973;SDS011;46846;51.528;5.076;2023-09-08T01:25:26;498.63;;;474.20;;
60973;SDS011;46846;51.528;5.076;2023-09-08T01:27:54;495.80;;;471.67;;
60973;SDS011;46846;51.528;5.076;2023-09-08T01:30:21;507.75;;;483.20;;
60973;SDS011;46846;51.528;5.076;2023-09-08T01:32:50;518.25;;;493.10;;
60973;SDS011;46846;51.528;5.076;2023-09-08T01:35:17;508.80;;;484.30;;
60973;SDS011;46846;51.528;5.076;2023-09-08T01:37:46;512.83;;;488.10;;
60973;SDS011;46846;51.528;5.076;2023-09-08T01:40:13;512.40;;;487.48;;
60973;SDS011;46846;51.528;5.076;2023-09-08T01:42:39;502.33;;;477.90;;
60973;SDS011;46846;51.528;5.076;2023-09-08T01:45:05;490.38;;;466.58;;
60973;SDS011;46846;51.528;5.076;2023-09-08T01:47:32;504.08;;;479.67;;
60973;SDS011;46846;51.528;5.076;2023-09-08T01:49:58;488.40;;;464.33;;
60973;SDS011;46846;51.528;5.076;2023-09-08T01:52:23;503.88;;;479.42;;
60973;SDS011;46846;51.528;5.076;2023-09-08T01:54:49;510.05;;;485.33;;
60973;SDS011;46846;51.528;5.076;2023-09-08T01:57:15;481.08;;;457.73;;
60973;SDS011;46846;51.528;5.076;2023-09-08T01:59:40;490.70;;;466.88;;
60973;SDS011;46846;51.528;5.076;2023-09-08T02:02:05;502.75;;;478.10;;
60973;SDS011;46846;51.528;5.076;2023-09-08T02:04:31;486.83;;;463.08;;
60973;SDS011;46846;51.528;5.076;2023-09-08T02:06:57;488.65;;;465.05;;
60973;SDS011;46846;51.528;5.076;2023-09-08T02:09:29;501.40;;;477.10;;
60973;SDS011;46846;51.528;5.076;2023-09-08T02:11:59;491.83;;;467.90;;
60973;SDS011;46846;51.528;5.076;2023-09-08T02:14:25;499.45;;;475.08;;
60973;SDS011;46846;51.528;5.076;2023-09-08T02:16:52;505.23;;;480.73;;
60973;SDS011;46846;51.528;5.076;2023-09-08T02:19:18;485.23;;;461.67;;
60973;SDS011;46846;51.528;5.076;2023-09-08T02:21:43;490.40;;;466.40;;
60973;SDS011;46846;51.528;5.076;2023-09-08T02:24:09;490.75;;;466.98;;
60973;SDS011;46846;51.528;5.076;2023-09-08T02:26:34;481.00;;;457.35;;
60973;SDS011;46846;51.528;5.076;2023-09-08T02:29:00;504.70;;;480.33;;
60973;SDS011;46846;51.528;5.076;2023-09-08T02:31:26;484.83;;;460.95;;
60973;SDS011;46846;51.528;5.076;2023-09-08T02:33:52;490.48;;;466.65;;
60973;SDS011;46846;51.528;5.076;2023-09-08T02:36:17;488.50;;;464.60;;
60973;SDS011;46846;51.528;5.076;2023-09-08T02:38:50;482.20;;;458.70;;
60973;SDS011;46846;51.528;5.076;2023-09-08T02:41:16;496.33;;;471.75;;
60973;SDS011;46846;51.528;5.076;2023-09-08T02:43:41;490.65;;;466.80;;
60973;SDS011;46846;51.528;5.076;2023-09-08T02:46:07;480.83;;;457.48;;
60973;SDS011;46846;51.528;5.076;2023-09-08T02:48:34;487.40;;;463.70;;
60973;SDS011;46846;51.528;5.076;2023-09-08T02:51:00;485.98;;;461.83;;
60973;SDS011;46846;51.528;5.076;2023-09-08T02:53:25;480.50;;;456.88;;
60973;SDS011;46846;51.528;5.076;2023-09-08T02:55:53;494.58;;;470.02;;
60973;SDS011;46846;51.528;5.076;2023-09-08T02:58:22;480.45;;;457.00;;
60973;SDS011;46846;51.528;5.076;2023-09-08T03:00:48;483.33;;;459.88;;
60973;SDS011;46846;51.528;5.076;2023-09-08T03:03:13;493.55;;;469.35;;
60973;SDS011;46846;51.528;5.076;2023-09-08T03:05:38;484.33;;;460.75;;
60973;SDS011;46846;51.528;5.076;2023-09-08T03:08:04;471.23;;;448.38;;
60973;SDS011;46846;51.528;5.076;2023-09-08T03:10:30;478.15;;;454.83;;
60973;SDS011;46846;51.528;5.076;2023-09-08T03:12:59;499.58;;;475.33;;
60973;SDS011;46846;51.528;5.076;2023-09-08T03:15:36;463.58;;;440.83;;
60973;SDS011;46846;51.528;5.076;2023-09-08T03:18:01;481.50;;;458.17;;
60973;SDS011;46846;51.528;5.076;2023-09-08T03:20:27;477.80;;;454.67;;
60973;SDS011;46846;51.528;5.076;2023-09-08T03:22:53;477.65;;;454.30;;
60973;SDS011;46846;51.528;5.076;2023-09-08T03:25:19;493.52;;;469.33;;
60973;SDS011;46846;51.528;5.076;2023-09-08T03:27:45;482.77;;;458.92;;
60973;SDS011;46846;51.528;5.076;2023-09-08T03:30:11;474.35;;;451.05;;
60973;SDS011;46846;51.528;5.076;2023-09-08T03:32:37;475.38;;;452.10;;
60973;SDS011;46846;51.528;5.076;2023-09-08T03:35:02;468.27;;;445.50;;
60973;SDS011;46846;51.528;5.076;2023-09-08T03:37:31;477.65;;;454.20;;
60973;SDS011;46846;51.528;5.076;2023-09-08T03:39:56;463.02;;;440.33;;
60973;SDS011;46846;51.528;5.076;2023-09-08T03:42:21;467.95;;;445.15;;
60973;SDS011;46846;51.528;5.076;2023-09-08T03:44:47;458.85;;;436.35;;
60973;SDS011;46846;51.528;5.076;2023-09-08T03:47:12;469.65;;;446.55;;
60973;SDS011;46846;51.528;5.076;2023-09-08T03:49:38;479.38;;;455.90;;
60973;SDS011;46846;51.528;5.076;2023-09-08T03:52:03;466.50;;;443.75;;
60973;SDS011;46846;51.528;5.076;2023-09-08T03:54:29;449.65;;;427.23;;
60973;SDS011;46846;51.528;5.076;2023-09-08T03:56:54;467.25;;;444.10;;
60973;SDS011;46846;51.528;5.076;2023-09-08T03:59:20;474.10;;;451.10;;
60973;SDS011;46846;51.528;5.076;2023-09-08T04:01:46;465.27;;;442.52;;
60973;SDS011;46846;51.528;5.076;2023-09-08T04:04:11;467.85;;;445.13;;
60973;SDS011;46846;51.528;5.076;2023-09-08T04:06:37;458.80;;;436.25;;
60973;SDS011;46846;51.528;5.076;2023-09-08T04:09:02;467.05;;;444.05;;
60973;SDS011;46846;51.528;5.076;2023-09-08T04:11:28;458.70;;;436.08;;
60973;SDS011;46846;51.528;5.076;2023-09-08T04:13:53;457.95;;;435.40;;
60973;SDS011;46846;51.528;5.076;2023-09-08T04:16:18;469.48;;;446.52;;
60973;SDS011;46846;51.528;5.076;2023-09-08T04:18:44;483.85;;;460.23;;
60973;SDS011;46846;51.528;5.076;2023-09-08T04:21:09;461.92;;;439.33;;
60973;SDS011;46846;51.528;5.076;2023-09-08T04:23:35;454.90;;;432.60;;
60973;SDS011;46846;51.528;5.076;2023-09-08T04:26:00;483.20;;;459.30;;
60973;SDS011;46846;51.528;5.076;2023-09-08T04:28:26;475.60;;;452.27;;
60973;SDS011;46846;51.528;5.076;2023-09-08T04:30:51;453.80;;;431.50;;
60973;SDS011;46846;51.528;5.076;2023-09-08T04:33:17;462.65;;;439.95;;
60973;SDS011;46846;51.528;5.076;2023-09-08T04:35:43;473.23;;;450.20;;
60973;SDS011;46846;51.528;5.076;2023-09-08T04:38:08;465.70;;;442.55;;
60973;SDS011;46846;51.528;5.076;2023-09-08T04:40:34;476.50;;;453.30;;
60973;SDS011;46846;51.528;5.076;2023-09-08T04:42:59;478.05;;;454.83;;
60973;SDS011;46846;51.528;5.076;2023-09-08T04:45:25;456.27;;;433.92;;
60973;SDS011;46846;51.528;5.076;2023-09-08T04:47:50;486.05;;;462.48;;
60973;SDS011;46846;51.528;5.076;2023-09-08T04:50:15;473.65;;;450.55;;
60973;SDS011;46846;51.528;5.076;2023-09-08T04:52:41;450.10;;;427.92;;
60973;SDS011;46846;51.528;5.076;2023-09-08T04:55:06;452.25;;;429.77;;
60973;SDS011;46846;51.528;5.076;2023-09-08T04:57:32;453.45;;;431.10;;
60973;SDS011;46846;51.528;5.076;2023-09-08T04:59:57;478.13;;;454.42;;
60973;SDS011;46846;51.528;5.076;2023-09-08T05:02:23;454.00;;;431.65;;
60973;SDS011;46846;51.528;5.076;2023-09-08T05:04:48;453.25;;;430.77;;
60973;SDS011;46846;51.528;5.076;2023-09-08T05:07:13;460.63;;;437.73;;
60973;SDS011;46846;51.528;5.076;2023-09-08T05:09:39;444.75;;;422.73;;
60973;SDS011;46846;51.528;5.076;2023-09-08T05:12:04;452.45;;;430.15;;
60973;SDS011;46846;51.528;5.076;2023-09-08T05:14:30;449.15;;;426.92;;
60973;SDS011;46846;51.528;5.076;2023-09-08T05:16:56;453.45;;;431.02;;
60973;SDS011;46846;51.528;5.076;2023-09-08T05:19:21;443.95;;;422.10;;
60973;SDS011;46846;51.528;5.076;2023-09-08T05:21:49;444.00;;;422.08;;
60973;SDS011;46846;51.528;5.076;2023-09-08T05:24:15;468.27;;;445.27;;
60973;SDS011;46846;51.528;5.076;2023-09-08T05:26:41;452.92;;;430.58;;
60973;SDS011;46846;51.528;5.076;2023-09-08T05:29:06;454.17;;;431.85;;
60973;SDS011;46846;51.528;5.076;2023-09-08T05:31:31;466.75;;;443.85;;
60973;SDS011;46846;51.528;5.076;2023-09-08T05:33:57;459.73;;;437.15;;
60973;SDS011;46846;51.528;5.076;2023-09-08T05:36:22;447.63;;;425.45;;
60973;SDS011;46846;51.528;5.076;2023-09-08T05:38:48;459.90;;;437.15;;
60973;SDS011;46846;51.528;5.076;2023-09-08T05:41:13;445.85;;;423.88;;
60973;SDS011;46846;51.528;5.076;2023-09-08T05:43:39;458.60;;;435.95;;
60973;SDS011;46846;51.528;5.076;2023-09-08T05:46:04;453.42;;;431.05;;
60973;SDS011;46846;51.528;5.076;2023-09-08T05:48:29;446.17;;;424.23;;
60973;SDS011;46846;51.528;5.076;2023-09-08T05:50:55;448.35;;;426.25;;
60973;SDS011;46846;51.528;5.076;2023-09-08T05:53:20;445.65;;;423.52;;
60973;SDS011;46846;51.528;5.076;2023-09-08T05:55:46;457.23;;;434.77;;
60973;SDS011;46846;51.528;5.076;2023-09-08T05:58:11;454.55;;;432.00;;
60973;SDS011;46846;51.528;5.076;2023-09-08T06:00:37;444.30;;;422.50;;
60973;SDS011;46846;51.528;5.076;2023-09-08T06:03:02;449.73;;;427.25;;
60973;SDS011;46846;51.528;5.076;2023-09-08T06:05:28;462.85;;;439.85;;
60973;SDS011;46846;51.528;5.076;2023-09-08T06:07:53;443.45;;;421.38;;
60973;SDS011;46846;51.528;5.076;2023-09-08T06:10:19;454.40;;;432.13;;
60973;SDS011;46846;51.528;5.076;2023-09-08T06:12:44;443.67;;;421.65;;
60973;SDS011;46846;51.528;5.076;2023-09-08T06:15:10;443.77;;;421.60;;
60973;SDS011;46846;51.528;5.076;2023-09-08T06:17:35;443.58;;;421.85;;
60973;SDS011;46846;51.528;5.076;2023-09-08T06:20:01;467.63;;;444.65;;
60973;SDS011;46846;51.528;5.076;2023-09-08T06:22:27;441.70;;;419.75;;
60973;SDS011;46846;51.528;5.076;2023-09-08T06:24:52;450.13;;;427.85;;
60973;SDS011;46846;51.528;5.076;2023-09-08T06:27:17;443.02;;;421.00;;
60973;SDS011;46846;51.528;5.076;2023-09-08T06:29:43;442.25;;;420.48;;
60973;SDS011;46846;51.528;5.076;2023-09-08T06:32:09;454.67;;;431.80;;
60973;SDS011;46846;51.528;5.076;2023-09-08T06:34:35;437.35;;;415.83;;
60973;SDS011;46846;51.528;5.076;2023-09-08T06:37:01;443.48;;;421.58;;
60973;SDS011;46846;51.528;5.076;2023-09-08T06:39:27;436.08;;;414.33;;
60973;SDS011;46846;51.528;5.076;2023-09-08T06:41:53;448.88;;;426.63;;
60973;SDS011;46846;51.528;5.076;2023-09-08T06:44:22;446.50;;;424.42;;
60973;SDS011;46846;51.528;5.076;2023-09-08T06:46:47;439.27;;;417.52;;
60973;SDS011;46846;51.528;5.076;2023-09-08T06:49:12;445.40;;;423.30;;
60973;SDS011;46846;51.528;5.076;2023-09-08T06:51:38;432.55;;;411.02;;
60973;SDS011;46846;51.528;5.076;2023-09-08T06:54:03;443.48;;;421.42;;
60973;SDS011;46846;51.528;5.076;2023-09-08T06:56:29;438.10;;;415.30;;
60973;SDS011;46846;51.528;5.076;2023-09-08T06:58:55;427.83;;;406.35;;
60973;SDS011;46846;51.528;5.076;2023-09-08T07:01:22;447.77;;;424.92;;
60973;SDS011;46846;51.528;5.076;2023-09-08T07:03:48;448.25;;;425.95;;
60973;SDS011;46846;51.528;5.076;2023-09-08T07:06:14;438.13;;;416.45;;
60973;SDS011;46846;51.528;5.076;2023-09-08T07:08:39;428.80;;;407.05;;
60973;SDS011;46846;51.528;5.076;2023-09-08T07:11:04;451.42;;;428.58;;
60973;SDS011;46846;51.528;5.076;2023-09-08T07:13:30;444.17;;;422.05;;
60973;SDS011;46846;51.528;5.076;2023-09-08T07:15:55;428.58;;;406.67;;
60973;SDS011;46846;51.528;5.076;2023-09-08T07:18:21;458.17;;;434.80;;
60973;SDS011;46846;51.528;5.076;2023-09-08T07:20:47;455.88;;;432.58;;
60973;SDS011;46846;51.528;5.076;2023-09-08T07:23:13;443.95;;;422.02;;
60973;SDS011;46846;51.528;5.076;2023-09-08T07:25:39;433.67;;;412.13;;
60973;SDS011;46846;51.528;5.076;2023-09-08T07:28:04;438.00;;;415.92;;
60973;SDS011;46846;51.528;5.076;2023-09-08T07:30:31;429.38;;;408.10;;
60973;SDS011;46846;51.528;5.076;2023-09-08T07:32:57;445.92;;;423.65;;
60973;SDS011;46846;51.528;5.076;2023-09-08T07:35:23;448.40;;;425.95;;
60973;SDS011;46846;51.528;5.076;2023-09-08T07:37:49;453.40;;;431.20;;
60973;SDS011;46846;51.528;5.076;2023-09-08T07:40:14;456.08;;;433.05;;
60973;SDS011;46846;51.528;5.076;2023-09-08T07:42:40;426.25;;;404.52;;
60973;SDS011;46846;51.528;5.076;2023-09-08T07:45:05;426.55;;;404.90;;
60973;SDS011;46846;51.528;5.076;2023-09-08T07:47:31;430.95;;;409.30;;
60973;SDS011;46846;51.528;5.076;2023-09-08T07:52:49;446.55;;;424.08;;
60973;SDS011;46846;51.528;5.076;2023-09-08T07:55:16;445.88;;;423.70;;
60973;SDS011;46846;51.528;5.076;2023-09-08T07:57:42;453.75;;;430.60;;
60973;SDS011;46846;51.528;5.076;2023-09-08T08:00:08;445.52;;;422.67;;
60973;SDS011;46846;51.528;5.076;2023-09-08T08:02:36;451.83;;;428.63;;
60973;SDS011;46846;51.528;5.076;2023-09-08T08:05:02;451.55;;;428.98;;
60973;SDS011;46846;51.528;5.076;2023-09-08T08:07:27;451.55;;;428.27;;
60973;SDS011;46846;51.528;5.076;2023-09-08T08:09:52;450.70;;;428.05;;
60973;SDS011;46846;51.528;5.076;2023-09-08T08:12:19;439.83;;;417.73;;
60973;SDS011;46846;51.528;5.076;2023-09-08T08:14:44;451.75;;;428.95;;
60973;SDS011;46846;51.528;5.076;2023-09-08T08:17:10;453.88;;;431.17;;
60973;SDS011;46846;51.528;5.076;2023-09-08T08:19:36;461.38;;;437.65;;
60973;SDS011;46846;51.528;5.076;2023-09-08T08:22:01;467.88;;;444.60;;
60973;SDS011;46846;51.528;5.076;2023-09-08T08:24:27;468.48;;;444.92;;
60973;SDS011;46846;51.528;5.076;2023-09-08T08:26:52;490.88;;;466.42;;
60973;SDS011;46846;51.528;5.076;2023-09-08T08:29:18;459.20;;;435.70;;
60973;SDS011;46846;51.528;5.076;2023-09-08T08:31:43;462.38;;;439.40;;
60973;SDS011;46846;51.528;5.076;2023-09-08T08:34:08;478.55;;;454.95;;
60973;SDS011;46846;51.528;5.076;2023-09-08T08:36:34;482.80;;;458.88;;
60973;SDS011;46846;51.528;5.076;2023-09-08T08:39:00;471.88;;;448.25;;
60973;SDS011;46846;51.528;5.076;2023-09-08T08:41:25;475.52;;;451.65;;
60973;SDS011;46846;51.528;5.076;2023-09-08T08:43:51;485.45;;;461.38;;
60973;SDS011;46846;51.528;5.076;2023-09-08T08:46:18;459.52;;;437.08;;
60973;SDS011;46846;51.528;5.076;2023-09-08T08:48:46;498.25;;;473.67;;
60973;SDS011;46846;51.528;5.076;2023-09-08T08:51:13;481.85;;;457.90;;
60973;SDS011;46846;51.528;5.076;2023-09-08T08:53:43;482.33;;;458.48;;
60973;SDS011;46846;51.528;5.076;2023-09-08T08:56:08;478.48;;;454.33;;
60973;SDS011;46846;51.528;5.076;2023-09-08T08:58:35;491.00;;;466.38;;
60973;SDS011;46846;51.528;5.076;2023-09-08T09:01:04;496.15;;;471.98;;
60973;SDS011;46846;51.528;5.076;2023-09-08T09:03:36;494.35;;;470.13;;
60973;SDS011;46846;51.528;5.076;2023-09-08T09:06:03;476.73;;;452.65;;
60973;SDS011;46846;51.528;5.076;2023-09-08T09:08:29;480.75;;;456.77;;
60973;SDS011;46846;51.528;5.076;2023-09-08T09:10:57;479.48;;;455.48;;
60973;SDS011;46846;51.528;5.076;2023-09-08T09:13:22;491.80;;;467.40;;
60973;SDS011;46846;51.528;5.076;2023-09-08T09:15:48;483.08;;;459.30;;
60973;SDS011;46846;51.528;5.076;2023-09-08T09:18:14;481.13;;;457.35;;
60973;SDS011;46846;51.528;5.076;2023-09-08T09:20:40;494.08;;;469.88;;
60973;SDS011;46846;51.528;5.076;2023-09-08T09:23:06;498.33;;;473.83;;
60973;SDS011;46846;51.528;5.076;2023-09-08T09:25:32;490.75;;;466.52;;
60973;SDS011;46846;51.528;5.076;2023-09-08T09:27:58;504.85;;;479.95;;
60973;SDS011;46846;51.528;5.076;2023-09-08T09:30:25;516.28;;;490.58;;
60973;SDS011;46846;51.528;5.076;2023-09-08T09:33:04;505.63;;;480.77;;
60973;SDS011;46846;51.528;5.076;2023-09-08T09:35:43;506.55;;;481.30;;
60973;SDS011;46846;51.528;5.076;2023-09-08T09:38:16;514.72;;;488.60;;
60973;SDS011;46846;51.528;5.076;2023-09-08T09:40:43;508.55;;;483.65;;
60973;SDS011;46846;51.528;5.076;2023-09-08T09:43:10;500.95;;;476.60;;
60973;SDS011;46846;51.528;5.076;2023-09-08T09:45:36;506.40;;;481.40;;
60973;SDS011;46846;51.528;5.076;2023-09-08T09:48:03;503.85;;;479.13;;
60973;SDS011;46846;51.528;5.076;2023-09-08T09:50:30;503.45;;;477.98;;
60973;SDS011;46846;51.528;5.076;2023-09-08T09:52:57;500.83;;;476.20;;
60973;SDS011;46846;51.528;5.076;2023-09-08T09:55:24;522.75;;;496.33;;
60973;SDS011;46846;51.528;5.076;2023-09-08T09:57:51;512.67;;;487.10;;
60973;SDS011;46846;51.528;5.076;2023-09-08T10:00:22;510.65;;;485.77;;
60973;SDS011;46846;51.528;5.076;2023-09-08T10:02:49;519.13;;;493.58;;
60973;SDS011;46846;51.528;5.076;2023-09-08T10:05:14;537.97;;;511.30;;
60973;SDS011;46846;51.528;5.076;2023-09-08T10:07:40;499.52;;;474.48;;
60973;SDS011;46846;51.528;5.076;2023-09-08T10:10:07;521.17;;;495.63;;
60973;SDS011;46846;51.528;5.076;2023-09-08T10:12:34;523.08;;;496.58;;
60973;SDS011;46846;51.528;5.076;2023-09-08T10:15:02;528.55;;;502.80;;
60973;SDS011;46846;51.528;5.076;2023-09-08T10:17:30;517.45;;;491.35;;
60973;SDS011;46846;51.528;5.076;2023-09-08T10:19:59;520.30;;;494.83;;
60973;SDS011;46846;51.528;5.076;2023-09-08T10:22:28;519.35;;;494.05;;
60973;SDS011;46846;51.528;5.076;2023-09-08T10:24:57;531.25;;;504.85;;
60973;SDS011;46846;51.528;5.076;2023-09-08T10:27:25;524.45;;;498.40;;
60973;SDS011;46846;51.528;5.076;2023-09-08T10:29:51;502.77;;;477.67;;
60973;SDS011;46846;51.528;5.076;2023-09-08T10:32:18;525.28;;;499.33;;
60973;SDS011;46846;51.528;5.076;2023-09-08T10:34:45;510.75;;;485.50;;
60973;SDS011;46846;51.528;5.076;2023-09-08T10:37:22;519.47;;;493.67;;
60973;SDS011;46846;51.528;5.076;2023-09-08T10:39:56;538.50;;;511.90;;
60973;SDS011;46846;51.528;5.076;2023-09-08T10:43:08;503.65;;;478.77;;
60973;SDS011;46846;51.528;5.076;2023-09-08T10:45:34;520.10;;;494.70;;
60973;SDS011;46846;51.528;5.076;2023-09-08T10:48:00;529.42;;;503.00;;
60973;SDS011;46846;51.528;5.076;2023-09-08T10:50:35;520.38;;;494.85;;
60973;SDS011;46846;51.528;5.076;2023-09-08T10:53:05;532.05;;;505.85;;
60973;SDS011;46846;51.528;5.076;2023-09-08T10:55:35;533.72;;;507.42;;
60973;SDS011;46846;51.528;5.076;2023-09-08T10:58:03;530.92;;;505.00;;
60973;SDS011;46846;51.528;5.076;2023-09-08T11:00:29;552.50;;;525.13;;
60973;SDS011;46846;51.528;5.076;2023-09-08T11:03:08;523.30;;;497.52;;
60973;SDS011;46846;51.528;5.076;2023-09-08T11:05:34;525.05;;;499.60;;
60973;SDS011;46846;51.528;5.076;2023-09-08T11:07:59;546.45;;;519.30;;
60973;SDS011;46846;51.528;5.076;2023-09-08T11:10:25;540.90;;;514.00;;
60973;SDS011;46846;51.528;5.076;2023-09-08T11:12:50;536.80;;;510.45;;
60973;SDS011;46846;51.528;5.076;2023-09-08T11:15:16;530.80;;;504.60;;
60973;SDS011;46846;51.528;5.076;2023-09-08T11:17:41;529.25;;;502.52;;
60973;SDS011;46846;51.528;5.076;2023-09-08T11:20:08;548.30;;;521.60;;
60973;SDS011;46846;51.528;5.076;2023-09-08T11:22:35;535.08;;;508.95;;
60973;SDS011;46846;51.528;5.076;2023-09-08T11:25:02;543.85;;;516.63;;
60973;SDS011;46846;51.528;5.076;2023-09-08T11:27:29;542.97;;;516.10;;
60973;SDS011;46846;51.528;5.076;2023-09-08T11:29:55;537.45;;;511.13;;
60973;SDS011;46846;51.528;5.076;2023-09-08T11:32:22;528.40;;;501.75;;
60973;SDS011;46846;51.528;5.076;2023-09-08T11:34:47;524.33;;;498.83;;
60973;SDS011;46846;51.528;5.076;2023-09-08T11:37:13;539.45;;;512.80;;
60973;SDS011;46846;51.528;5.076;2023-09-08T11:39:41;545.90;;;518.20;;
60973;SDS011;46846;51.528;5.076;2023-09-08T11:42:07;537.35;;;510.70;;
60973;SDS011;46846;51.528;5.076;2023-09-08T11:44:35;534.78;;;508.13;;
60973;SDS011;46846;51.528;5.076;2023-09-08T11:47:01;534.85;;;508.33;;
60973;SDS011;46846;51.528;5.076;2023-09-08T11:49:33;554.42;;;527.33;;
60973;SDS011;46846;51.528;5.076;2023-09-08T11:51:59;539.55;;;512.95;;
60973;SDS011;46846;51.528;5.076;2023-09-08T11:54:24;542.88;;;516.50;;
60973;SDS011;46846;51.528;5.076;2023-09-08T11:56:50;547.72;;;520.95;;
60973;SDS011;46846;51.528;5.076;2023-09-08T11:59:17;542.53;;;515.70;;
60973;SDS011;46846;51.528;5.076;2023-09-08T12:01:43;558.33;;;530.92;;
60973;SDS011;46846;51.528;5.076;2023-09-08T12:04:13;552.30;;;524.75;;
60973;SDS011;46846;51.528;5.076;2023-09-08T12:06:43;550.00;;;522.83;;
60973;SDS011;46846;51.528;5.076;2023-09-08T12:09:08;553.13;;;526.20;;
60973;SDS011;46846;51.528;5.076;2023-09-08T12:11:34;558.13;;;529.78;;
60973;SDS011;46846;51.528;5.076;2023-09-08T12:14:06;545.38;;;518.42;;
60973;SDS011;46846;51.528;5.076;2023-09-08T12:16:34;547.00;;;520.03;;
60973;SDS011;46846;51.528;5.076;2023-09-08T12:19:00;545.70;;;518.55;;
60973;SDS011;46846;51.528;5.076;2023-09-08T12:21:25;547.28;;;520.00;;
60973;SDS011;46846;51.528;5.076;2023-09-08T12:23:52;547.67;;;520.63;;
60973;SDS011;46846;51.528;5.076;2023-09-08T12:26:19;554.80;;;527.03;;
60973;SDS011;46846;51.528;5.076;2023-09-08T12:28:45;553.38;;;526.15;;
60973;SDS011;46846;51.528;5.076;2023-09-08T12:31:14;562.53;;;534.38;;
60973;SDS011;46846;51.528;5.076;2023-09-08T12:33:45;561.83;;;534.60;;
60973;SDS011;46846;51.528;5.076;2023-09-08T12:36:15;561.47;;;533.92;;
60973;SDS011;46846;51.528;5.076;2023-09-08T12:38:47;551.05;;;524.03;;
60973;SDS011;46846;51.528;5.076;2023-09-08T12:41:14;556.38;;;529.17;;
60973;SDS011;46846;51.528;5.076;2023-09-08T12:43:39;556.33;;;529.10;;
60973;SDS011;46846;51.528;5.076;2023-09-08T12:46:05;563.53;;;535.78;;
60973;SDS011;46846;51.528;5.076;2023-09-08T12:48:30;571.50;;;542.70;;
60973;SDS011;46846;51.528;5.076;2023-09-08T12:50:55;569.03;;;540.85;;
60973;SDS011;46846;51.528;5.076;2023-09-08T12:53:21;559.33;;;531.92;;
60973;SDS011;46846;51.528;5.076;2023-09-08T12:55:48;584.65;;;556.30;;
60973;SDS011;46846;51.528;5.076;2023-09-08T12:58:13;568.47;;;540.17;;
60973;SDS011;46846;51.528;5.076;2023-09-08T13:00:39;570.60;;;542.20;;
60973;SDS011;46846;51.528;5.076;2023-09-08T13:03:04;580.00;;;551.53;;
60973;SDS011;46846;51.528;5.076;2023-09-08T13:05:30;570.40;;;541.63;;
60973;SDS011;46846;51.528;5.076;2023-09-08T13:07:56;580.92;;;552.65;;
60973;SDS011;46846;51.528;5.076;2023-09-08T13:10:21;567.58;;;539.95;;
60973;SDS011;46846;51.528;5.076;2023-09-08T13:12:47;582.78;;;554.03;;
60973;SDS011;46846;51.528;5.076;2023-09-08T13:15:13;565.63;;;538.20;;
60973;SDS011;46846;51.528;5.076;2023-09-08T13:17:39;586.58;;;557.60;;
60973;SDS011;46846;51.528;5.076;2023-09-08T13:20:05;585.15;;;555.38;;
60973;SDS011;46846;51.528;5.076;2023-09-08T13:22:31;574.97;;;546.65;;
60973;SDS011;46846;51.528;5.076;2023-09-08T13:24:57;593.53;;;563.83;;
60973;SDS011;46846;51.528;5.076;2023-09-08T13:27:22;581.60;;;552.72;;
60973;SDS011;46846;51.528;5.076;2023-09-08T13:29:47;576.70;;;548.25;;
60973;SDS011;46846;51.528;5.076;2023-09-08T13:32:13;571.15;;;543.38;;
60973;SDS011;46846;51.528;5.076;2023-09-08T13:34:39;592.03;;;562.72;;
60973;SDS011;46846;51.528;5.076;2023-09-08T13:37:04;581.38;;;552.58;;
60973;SDS011;46846;51.528;5.076;2023-09-08T13:39:30;583.88;;;555.25;;
60973;SDS011;46846;51.528;5.076;2023-09-08T13:41:55;594.08;;;565.15;;
60973;SDS011;46846;51.528;5.076;2023-09-08T13:44:24;593.47;;;564.47;;
60973;SDS011;46846;51.528;5.076;2023-09-08T13:46:50;579.25;;;550.58;;
60973;SDS011;46846;51.528;5.076;2023-09-08T13:49:16;593.80;;;564.05;;
60973;SDS011;46846;51.528;5.076;2023-09-08T13:51:42;598.25;;;568.72;;
60973;SDS011;46846;51.528;5.076;2023-09-08T13:54:09;599.33;;;569.92;;
60973;SDS011;46846;51.528;5.076;2023-09-08T13:56:37;589.97;;;560.60;;
60973;SDS011;46846;51.528;5.076;2023-09-08T13:59:04;606.65;;;576.35;;